Huvudsida
METAR-TAF:

METAR-TAF

Flygplatser :

Kuusamo flygplats

Kuusamo, Finland

latitud: 65-58N, longitud: 029-11E, höjd: 262 m

Aktuellt väderrapport

Denna rapport gjordes för 11 minuter sedan, klockan 22:50 UTC
Vind 7 kt från väst
Temperatur 9°C
Fuktighet 87%
Tryck 999 hPa
Sikt 10 km eller mer
Inga moln under 1 500 m eller inga cumulonimbus

METAR: EFKS 202250Z AUTO 28007KT CAVOK 09/07 Q0999

Tid: 02:01 (23:01 UTC)

Väderprognos

Denna rapport gjordes för 14 timmar och 29 minuter sedan, klockan 08:32 UTC
Prognos gäller från 20 kl. 09 UTC till 20 kl. 12 UTC
Vind 9 kt från väst
Sikt 10 km eller mer
Brutna moln på en höjd av 1500 ft
Temporärt
från 20 kl. 09 UTC till 20 kl. 11 UTC
Sikt: 7000 m
Brutna moln på en höjd av 1300 ft
Spridda moln på en höjd av 3000 ft, Cumulonimbus.
regnskurar,

TAF: EFKS 200832Z 2009/2012 27009KT 9999 BKN015 TEMPO 2009/2011 7000 SHRA BKN013 SCT030CB

Aktuella väderrapporter och prognoser från 4000 flygplatser (METAR- och TAF-rapporter).

De tillgängliga stationerna syns som gula och röda prickar på kartan.

För musen över prickarna för att se namnen på stationerna.

Klicka sedan för att få väderrapporter och prognoser.

För att ändra kartan: Klicka på de gröna knapparna med ett svart kors på för att zooma in; den gröna knappen med ett streck på för att zooma ut; eller på de gröna pilarna för angränsande kartor.


METAR-TAF: